Main page
METAR-TAF:

METAR-TAF

Airports :

Bückeburg Air Base

Bückeburg, Germany

latitude: 52-17N, longitude: 009-05E, elevation: 70 m

Current weather observation

The report was made 57 minutes ago, at 22:20 UTC
Wind 17 kt from the East
Temperature 12°C
Humidity 47%
Pressure 1009 hPa
Visibility 10 km or more
Scattered clouds at a height of 33000 ft

METAR: ETHB 222220Z 10017KT 9999 SCT330 12/01 Q1009 BLU+

Time: 01:17 (23:17 UTC)


TAF: missing

Weather observations and forecasts of more than 4000 airports (METAR and TAF reports).

The available stations are represented by yellow and red dots on the map.

Hover mouse over dot to see the name of the station.

Then click to see weather observations and forecasts.

To change the map : click on the green buttons with a black cross to zoom in, on the green button with a dash to zoom out, or on the green arrows for adjacent maps.


METAR-TAF: